Time;durP1;ratioP1;P1;durP2;ratioP2;P2;SDS_P1;SDS_P2;PMS_P1;PMS_P2;Temp;Humidity;BMP_temperature;BMP_pressure;BME280_temperature;BME280_humidity;BME280_pressure;Samples;Min_cycle;Max_cycle;Signal;HPM_P1;HPM_P2
2021/12/03 00:00:43;;;;;;;12.18;5.25;;;;;;;-0.92;100.00;100990.41;5052296;28;20029;-68
2021/12/03 00:03:09;;;;;;;15.93;6.78;;;;;;;-0.90;100.00;101001.59;5053509;28;20094;-68
2021/12/03 00:05:35;;;;;;;14.07;6.20;;;;;;;-0.91;100.00;101000.75;5053591;28;20017;-69
2021/12/03 00:08:00;;;;;;;13.77;6.35;;;;;;;-0.86;100.00;100999.56;5053073;28;20029;-68
2021/12/03 00:10:26;;;;;;;19.23;6.78;;;;;;;-0.88;100.00;101004.94;5053508;28;20105;-68
2021/12/03 00:12:54;;;;;;;9.00;6.22;;;;;;;-0.84;100.00;100998.47;5053258;28;20084;-68
2021/12/03 00:15:23;;;;;;;13.23;7.15;;;;;;;-0.85;100.00;100998.63;5053287;28;20043;-68
2021/12/03 00:17:49;;;;;;;12.98;7.75;;;;;;;-0.83;100.00;101000.16;5053446;28;20468;-67
2021/12/03 00:20:15;;;;;;;12.88;6.22;;;;;;;-0.84;100.00;101001.09;5053239;28;20037;-67
2021/12/03 00:22:43;;;;;;;11.20;5.72;;;;;;;-0.85;100.00;100999.44;5053365;28;20032;-67
2021/12/03 00:25:08;;;;;;;11.50;6.40;;;;;;;-0.86;100.00;101004.78;5053305;28;20091;-67
2021/12/03 00:27:34;;;;;;;12.07;7.18;;;;;;;-0.86;100.00;101005.66;5053290;28;20029;-67
2021/12/03 00:29:59;;;;;;;15.25;7.80;;;;;;;-0.87;100.00;101003.97;5053323;28;20096;-67
2021/12/03 00:32:25;;;;;;;13.13;7.45;;;;;;;-0.85;100.00;101004.69;5053170;28;20476;-67
2021/12/03 00:34:50;;;;;;;16.73;8.65;;;;;;;-0.85;100.00;100996.84;5053143;28;20121;-67
2021/12/03 00:37:16;;;;;;;16.23;7.57;;;;;;;-0.87;100.00;100993.50;5053009;28;20374;-67
2021/12/03 00:39:41;;;;;;;16.65;9.10;;;;;;;-0.82;100.00;101001.81;5052948;28;20074;-67
2021/12/03 00:42:07;;;;;;;14.85;8.35;;;;;;;-0.82;100.00;101012.28;5052924;28;20024;-68
2021/12/03 00:44:33;;;;;;;14.02;9.18;;;;;;;-0.83;100.00;101010.66;5052930;28;20060;-67
2021/12/03 00:46:59;;;;;;;16.10;9.05;;;;;;;-0.86;100.00;101002.16;5052706;28;20052;-67
2021/12/03 00:49:25;;;;;;;21.75;10.60;;;;;;;-0.85;100.00;101001.25;5052025;28;20104;-66
2021/12/03 00:51:51;;;;;;;15.32;8.68;;;;;;;-0.82;100.00;101011.47;5052308;28;20029;-67
2021/12/03 00:54:16;;;;;;;18.08;9.27;;;;;;;-0.82;100.00;101007.06;5050801;28;20063;-69
2021/12/03 00:56:42;;;;;;;22.52;10.77;;;;;;;-0.83;100.00;101008.03;5052835;28;20075;-67
2021/12/03 00:59:08;;;;;;;17.92;9.20;;;;;;;-0.84;100.00;100998.47;5052675;28;20053;-67
2021/12/03 01:01:34;;;;;;;21.55;9.77;;;;;;;-0.81;100.00;101010.50;5052854;28;20453;-67
2021/12/03 01:03:59;;;;;;;19.98;11.35;;;;;;;-0.81;100.00;101006.13;5052765;28;20392;-67
2021/12/03 01:06:24;;;;;;;21.40;10.30;;;;;;;-0.82;100.00;100996.59;5051473;28;20117;-67
2021/12/03 01:08:50;;;;;;;19.23;10.70;;;;;;;-0.83;100.00;101001.97;5052634;28;20116;-68
2021/12/03 01:11:15;;;;;;;20.17;9.35;;;;;;;-0.88;100.00;100997.06;5054260;28;20104;-68
2021/12/03 01:13:44;;;;;;;19.90;11.93;;;;;;;-0.85;100.00;101011.72;5056490;28;20061;-68
2021/12/03 01:16:11;;;;;;;20.90;11.15;;;;;;;-0.83;100.00;101012.44;5056485;28;20131;-67
2021/12/03 01:18:37;;;;;;;21.17;11.40;;;;;;;-0.83;100.00;101012.44;5056733;28;20036;-67
2021/12/03 01:21:03;;;;;;;26.30;13.05;;;;;;;-0.82;100.00;101016.72;5072182;28;20025;-68
2021/12/03 01:23:29;;;;;;;19.75;9.73;;;;;;;-0.85;100.00;101016.94;5056596;28;20040;-67
2021/12/03 01:25:54;;;;;;;20.08;11.85;;;;;;;-0.81;100.00;101018.38;5056523;28;20025;-67
2021/12/03 01:28:20;;;;;;;23.13;11.35;;;;;;;-0.82;100.00;101016.72;5056430;28;20021;-68
2021/12/03 01:30:45;;;;;;;19.17;11.40;;;;;;;-0.79;100.00;101013.84;5056476;28;20155;-68
2021/12/03 01:33:11;;;;;;;18.65;10.93;;;;;;;-0.82;100.00;101014.91;5055271;28;20029;-67
2021/12/03 01:35:38;;;;;;;23.38;11.75;;;;;;;-0.75;100.00;101020.53;5055232;28;20481;-67
2021/12/03 01:38:05;;;;;;;19.23;10.68;;;;;;;-0.76;100.00;101026.69;5056420;28;20036;-67
2021/12/03 01:40:33;;;;;;;26.75;13.82;;;;;;;-0.74;100.00;101028.25;5055931;28;20066;-67
2021/12/03 01:43:00;;;;;;;24.23;12.82;;;;;;;-0.73;100.00;101022.06;5056329;28;20020;-67
2021/12/03 01:45:31;;;;;;;24.58;12.50;;;;;;;-0.69;100.00;101028.72;5056350;28;20036;-67
2021/12/03 01:47:58;;;;;;;24.48;13.40;;;;;;;-0.62;100.00;101023.03;5056075;28;20213;-67
2021/12/03 01:50:27;;;;;;;27.83;16.88;;;;;;;-0.58;100.00;101009.53;5055622;28;20025;-67
2021/12/03 01:52:53;;;;;;;32.33;16.13;;;;;;;-0.56;100.00;101012.88;5055932;28;20029;-67
2021/12/03 01:55:18;;;;;;;35.08;17.27;;;;;;;-0.53;100.00;101007.41;5055777;28;20052;-67
2021/12/03 01:57:44;;;;;;;30.48;17.27;;;;;;;-0.50;100.00;101011.56;5054620;28;20032;-66
2021/12/03 02:00:28;;;;;;;34.53;18.25;;;;;;;-0.48;100.00;101014.91;5055669;28;20036;-66
2021/12/03 02:02:54;;;;;;;30.40;16.30;;;;;;;-0.47;100.00;101019.22;5055915;28;20028;-67
2021/12/03 02:05:20;;;;;;;31.67;16.85;;;;;;;-0.47;100.00;101009.56;5055809;28;20025;-67
2021/12/03 02:07:46;;;;;;;28.58;16.67;;;;;;;-0.45;100.00;101009.41;5055817;28;20043;-67
2021/12/03 02:10:13;;;;;;;34.28;16.15;;;;;;;-0.44;100.00;101008.47;5055674;28;20496;-67
2021/12/03 02:12:39;;;;;;;32.60;18.25;;;;;;;-0.49;100.00;101008.84;5054312;28;20455;-67
2021/12/03 02:15:05;;;;;;;26.83;15.82;;;;;;;-0.45;100.00;101007.66;5055618;28;20029;-67
2021/12/03 02:17:30;;;;;;;33.42;18.13;;;;;;;-0.46;100.00;100998.09;5055629;28;20032;-67
2021/12/03 02:19:56;;;;;;;31.30;16.25;;;;;;;-0.45;100.00;101002.41;5055598;28;20037;-67
2021/12/03 02:22:22;;;;;;;36.47;17.60;;;;;;;-0.45;100.00;100999.78;5054089;28;20063;-67
2021/12/03 02:24:47;;;;;;;27.38;15.25;;;;;;;-0.44;100.00;101005.84;5055544;28;20068;-67
2021/12/03 02:27:13;;;;;;;25.77;15.35;;;;;;;-0.45;100.00;101010.28;5055496;28;20051;-68
2021/12/03 02:29:38;;;;;;;25.80;15.48;;;;;;;-0.43;100.00;101007.50;5055336;28;20029;-67
2021/12/03 02:32:05;;;;;;;25.52;14.98;;;;;;;-0.39;100.00;101006.34;5055139;28;20075;-68
2021/12/03 02:34:30;;;;;;;28.75;17.45;;;;;;;-0.32;100.00;101010.09;5054614;28;20029;-67
2021/12/03 02:36:56;;;;;;;30.10;16.42;;;;;;;-0.30;100.00;101010.00;5053965;28;20474;-68
2021/12/03 02:39:22;;;;;;;34.35;17.83;;;;;;;-0.26;100.00;101009.63;5055056;28;20082;-67
2021/12/03 02:41:47;;;;;;;38.88;20.98;;;;;;;-0.17;100.00;101012.47;5055099;28;20028;-68
2021/12/03 02:44:13;;;;;;;40.80;20.67;;;;;;;-0.14;100.00;101015.66;5055214;28;20032;-68
2021/12/03 02:46:38;;;;;;;42.80;21.45;;;;;;;-0.12;100.00;101003.28;5054953;28;20486;-67
2021/12/03 02:49:05;;;;;;;44.03;22.42;;;;;;;-0.13;100.00;100991.13;5055152;28;20106;-67
2021/12/03 02:51:31;;;;;;;48.03;22.90;;;;;;;-0.05;100.00;100998.38;5054505;28;20032;-68
2021/12/03 02:53:56;;;;;;;43.47;21.75;;;;;;;-0.07;100.00;100988.00;5053418;28;20028;-68
2021/12/03 02:56:22;;;;;;;44.53;23.85;;;;;;;0.01;100.00;101004.91;5054704;28;20370;-67
2021/12/03 02:58:47;;;;;;;50.70;26.02;;;;;;;0.03;100.00;101002.97;5054373;28;20025;-68
2021/12/03 03:01:12;;;;;;;51.65;26.98;;;;;;;0.00;100.00;100998.84;5054745;28;20024;-67
2021/12/03 03:03:38;;;;;;;48.03;22.58;;;;;;;0.07;100.00;101012.28;5054774;28;20040;-67
2021/12/03 03:06:06;;;;;;;47.63;23.80;;;;;;;0.08;100.00;101006.91;5054671;28;20427;-68
2021/12/03 03:08:31;;;;;;;56.30;26.20;;;;;;;0.10;100.00;101007.59;5054592;28;20083;-67
2021/12/03 03:11:00;;;;;;;43.15;23.33;;;;;;;0.11;100.00;101003.22;5054333;28;20385;-67
2021/12/03 03:13:25;;;;;;;42.72;22.05;;;;;;;0.13;100.00;100991.66;5054139;28;20091;-67
2021/12/03 03:15:51;;;;;;;52.28;23.33;;;;;;;0.14;100.00;100995.09;5054233;28;20108;-67
2021/12/03 03:18:20;;;;;;;47.88;24.65;;;;;;;0.15;100.00;100983.63;5054447;28;20033;-67
2021/12/03 03:20:47;;;;;;;50.63;26.17;;;;;;;0.17;100.00;100984.34;5054521;28;20025;-67
2021/12/03 03:23:14;;;;;;;41.45;20.35;;;;;;;0.18;100.00;100976.38;5054341;28;20035;-67
2021/12/03 03:25:43;;;;;;;46.08;22.85;;;;;;;0.21;100.00;100989.22;5054352;28;20017;-67
2021/12/03 03:28:11;;;;;;;48.40;22.25;;;;;;;0.22;100.00;100988.25;5054247;28;20029;-67
2021/12/03 03:30:40;;;;;;;52.90;21.73;;;;;;;0.25;100.00;100988.97;5054242;28;20480;-67
2021/12/03 03:33:06;;;;;;;42.10;21.40;;;;;;;0.26;100.00;100980.94;5053868;28;20052;-67
2021/12/03 03:35:32;;;;;;;41.42;22.05;;;;;;;0.25;100.00;100981.09;5069443;28;20017;-68
2021/12/03 03:37:58;;;;;;;42.35;23.10;;;;;;;0.27;100.00;100989.69;5052896;28;20035;-68
2021/12/03 03:40:24;;;;;;;50.70;20.55;;;;;;;0.29;100.00;100991.22;5054044;28;20048;-67
2021/12/03 03:42:49;;;;;;;38.70;19.85;;;;;;;0.30;100.00;100992.88;5054050;28;20037;-67
2021/12/03 03:45:18;;;;;;;40.22;19.48;;;;;;;0.30;100.00;100995.50;5053673;28;20029;-67
2021/12/03 03:47:45;;;;;;;38.15;20.13;;;;;;;0.33;100.00;100999.66;5053815;28;20021;-67
2021/12/03 03:50:12;;;;;;;36.25;21.67;;;;;;;0.33;100.00;100997.84;5053856;28;20360;-67
2021/12/03 03:52:39;;;;;;;41.47;20.45;;;;;;;0.33;100.00;100987.38;5053933;28;20065;-67
2021/12/03 03:55:09;;;;;;;39.08;19.75;;;;;;;0.37;100.00;100988.78;5053429;28;20053;-68
2021/12/03 03:57:34;;;;;;;44.00;18.45;;;;;;;0.39;100.00;100988.66;5069363;28;20033;-68
2021/12/03 04:00:00;;;;;;;33.90;19.17;;;;;;;0.40;100.00;100985.91;5053329;28;20044;-67
2021/12/03 04:02:26;;;;;;;40.20;21.13;;;;;;;0.42;100.00;100983.16;5053582;28;20036;-68
2021/12/03 04:04:51;;;;;;;41.15;20.58;;;;;;;0.43;100.00;100975.16;5053646;28;20035;-67
2021/12/03 04:07:17;;;;;;;36.30;21.30;;;;;;;0.41;100.00;100966.56;5053612;28;20493;-68
2021/12/03 04:09:42;;;;;;;37.20;18.42;;;;;;;0.48;100.00;100979.19;5068809;28;20107;-67
2021/12/03 04:12:08;;;;;;;44.20;22.67;;;;;;;0.50;100.00;100974.63;5052861;28;20049;-67
2021/12/03 04:14:33;;;;;;;41.28;22.55;;;;;;;0.49;100.00;100968.56;5053256;28;20037;-67
2021/12/03 04:16:58;;;;;;;41.38;20.20;;;;;;;0.50;100.00;100956.25;5053071;28;20511;-67
2021/12/03 04:19:24;;;;;;;37.03;21.83;;;;;;;0.51;100.00;100953.53;5053246;28;20082;-68
2021/12/03 04:21:49;;;;;;;51.05;23.73;;;;;;;0.52;100.00;100967.47;5053380;28;20107;-67
2021/12/03 04:24:15;;;;;;;45.78;23.90;;;;;;;0.51;100.00;100969.25;5052104;28;20384;-67
2021/12/03 04:26:40;;;;;;;41.10;21.00;;;;;;;0.49;100.00;100963.31;5053253;28;20174;-68
2021/12/03 04:29:06;;;;;;;43.05;19.65;;;;;;;0.54;100.00;100971.63;5051968;28;20380;-67
2021/12/03 04:31:31;;;;;;;49.08;23.60;;;;;;;0.54;100.00;100961.13;5053048;28;20044;-67
2021/12/03 04:33:57;;;;;;;47.78;21.38;;;;;;;0.58;100.00;100959.94;5052991;28;20032;-68
2021/12/03 04:36:22;;;;;;;47.25;20.83;;;;;;;0.58;100.00;100967.81;5053043;28;20025;-67
2021/12/03 04:38:48;;;;;;;39.05;18.15;;;;;;;0.58;100.00;100959.94;5052952;28;20033;-68
2021/12/03 04:41:13;;;;;;;43.60;20.67;;;;;;;0.56;100.00;100958.41;5051836;28;20021;-67
2021/12/03 04:43:39;;;;;;;42.00;21.27;;;;;;;0.58;100.00;100969.59;5053015;28;20037;-67
2021/12/03 04:46:04;;;;;;;45.38;21.27;;;;;;;0.59;100.00;100966.81;5052214;28;20033;-67
2021/12/03 04:48:30;;;;;;;45.03;20.15;;;;;;;0.60;100.00;100971.13;5052843;28;20053;-67
2021/12/03 04:50:56;;;;;;;43.20;22.02;;;;;;;0.62;100.00;100971.81;5052946;28;20025;-67
2021/12/03 04:53:21;;;;;;;37.75;17.13;;;;;;;0.64;100.00;100972.53;5052863;28;20512;-68
2021/12/03 04:55:49;;;;;;;37.30;20.85;;;;;;;0.67;100.00;100970.59;5052798;28;20052;-67
2021/12/03 04:58:16;;;;;;;39.40;19.33;;;;;;;0.69;100.00;100977.41;5052738;28;20036;-67
2021/12/03 05:00:45;;;;;;;44.92;18.75;;;;;;;0.71;100.00;100957.09;5052664;28;20044;-68
2021/12/03 05:03:11;;;;;;;38.33;21.17;;;;;;;0.72;100.00;100952.69;5051587;28;20021;-67
2021/12/03 05:05:42;;;;;;;41.88;20.90;;;;;;;0.71;100.00;100964.97;5052732;28;20021;-68
2021/12/03 05:08:07;;;;;;;45.38;21.67;;;;;;;0.73;100.00;100955.16;5052793;28;20096;-68
2021/12/03 05:10:36;;;;;;;48.45;23.30;;;;;;;0.74;100.00;100948.13;5051558;28;20361;-67
2021/12/03 05:13:16;;;;;;;47.78;22.73;;;;;;;0.78;100.00;100944.28;5052567;28;20056;-68
2021/12/03 05:15:42;;;;;;;41.13;22.48;;;;;;;0.77;100.00;100940.81;5052598;28;20025;-68
2021/12/03 05:18:10;;;;;;;42.97;18.85;;;;;;;0.76;100.00;100933.91;5052725;28;20029;-67
2021/12/03 05:20:36;;;;;;;41.63;21.98;;;;;;;0.75;100.00;100927.00;5052573;28;20025;-68
2021/12/03 05:23:02;;;;;;;41.08;20.50;;;;;;;0.78;100.00;100931.97;5052630;28;20033;-67
2021/12/03 05:25:28;;;;;;;41.80;22.85;;;;;;;0.78;100.00;100924.09;5052657;28;20456;-67
2021/12/03 05:27:54;;;;;;;46.10;20.95;;;;;;;0.78;100.00;100934.59;5052556;28;20518;-67
2021/12/03 05:30:21;;;;;;;41.10;19.02;;;;;;;0.79;100.00;100932.81;5052534;28;20033;-68
2021/12/03 05:32:46;;;;;;;44.85;23.67;;;;;;;0.77;100.00;100930.31;5052623;28;20044;-67
2021/12/03 05:35:13;;;;;;;34.50;16.77;;;;;;;0.76;100.00;100941.78;5052534;28;20064;-67
2021/12/03 05:37:38;;;;;;;41.33;20.08;;;;;;;0.69;100.00;100922.28;5052499;28;20025;-67
2021/12/03 05:40:06;;;;;;;31.55;18.10;;;;;;;0.77;100.00;100942.63;5052327;28;20047;-67
2021/12/03 05:42:31;;;;;;;58.78;15.52;;;;;;;0.75;100.00;100929.63;5052390;28;20108;-68
2021/12/03 05:44:58;;;;;;;33.85;17.20;;;;;;;0.80;100.00;100944.97;5051178;28;20575;-68
2021/12/03 05:47:25;;;;;;;35.88;17.00;;;;;;;0.80;100.00;100942.34;5052587;28;20053;-68
2021/12/03 05:49:51;;;;;;;33.30;15.73;;;;;;;0.80;100.00;100940.56;5052422;28;20108;-67
2021/12/03 05:52:17;;;;;;;59.53;17.63;;;;;;;0.81;100.00;100941.38;5052318;28;20116;-67
2021/12/03 05:54:43;;;;;;;29.92;14.65;;;;;;;0.82;100.00;100935.19;5052396;28;20021;-67
2021/12/03 05:57:09;;;;;;;32.30;15.52;;;;;;;0.85;100.00;100943.63;5053699;28;20084;-67
2021/12/03 05:59:34;;;;;;;23.88;12.52;;;;;;;0.86;100.00;100947.06;5055989;28;20053;-68
2021/12/03 06:02:00;;;;;;;23.95;11.60;;;;;;;0.84;100.00;100936.72;5055965;28;20033;-67
2021/12/03 06:04:27;;;;;;;26.83;13.38;;;;;;;0.90;100.00;100950.28;5055904;28;20024;-67
2021/12/03 06:06:52;;;;;;;24.33;11.27;;;;;;;0.90;100.00;100945.03;5054520;28;20029;-67
2021/12/03 06:09:19;;;;;;;27.35;12.43;;;;;;;0.89;100.00;100946.81;5055752;28;20476;-67
2021/12/03 06:11:44;;;;;;;22.48;11.65;;;;;;;0.87;100.00;100946.94;5055513;28;20057;-67
2021/12/03 06:14:09;;;;;;;23.17;11.27;;;;;;;0.87;100.00;100941.69;5055772;28;20048;-67
2021/12/03 06:16:35;;;;;;;33.13;13.63;;;;;;;0.84;100.00;100939.34;5055588;28;20025;-67
2021/12/03 06:19:00;;;;;;;21.42;9.65;;;;;;;0.84;100.00;100943.78;5055544;28;20079;-67
2021/12/03 06:21:26;;;;;;;21.75;10.05;;;;;;;0.81;100.00;100934.34;5055446;28;20035;-68
2021/12/03 06:23:51;;;;;;;22.13;10.45;;;;;;;0.79;100.00;100925.78;5055603;28;20053;-68
2021/12/03 06:26:17;;;;;;;20.83;10.07;;;;;;;0.84;100.00;100935.91;5055463;28;20542;-67
2021/12/03 06:28:42;;;;;;;22.65;9.07;;;;;;;0.84;100.00;100938.50;5055449;28;20477;-68
2021/12/03 06:31:08;;;;;;;22.65;10.40;;;;;;;0.82;100.00;100930.75;5055576;28;20060;-68
2021/12/03 06:33:33;;;;;;;19.45;10.63;;;;;;;0.83;100.00;100940.28;5055316;28;20033;-68
2021/12/03 06:35:59;;;;;;;18.83;8.85;;;;;;;0.83;100.00;100929.78;5055352;28;20025;-67
2021/12/03 06:38:25;;;;;;;20.25;9.85;;;;;;;0.86;100.00;100926.06;5055147;28;20025;-67
2021/12/03 06:40:52;;;;;;;18.50;8.63;;;;;;;0.86;100.00;100923.44;5055089;28;20025;-68
2021/12/03 06:43:18;;;;;;;17.15;7.78;;;;;;;0.86;100.00;100926.91;5055199;28;20147;-67
2021/12/03 06:45:43;;;;;;;21.92;10.07;;;;;;;0.87;100.00;100931.19;5055210;28;20033;-67
2021/12/03 06:48:09;;;;;;;23.77;7.90;;;;;;;0.87;100.00;100925.94;5055073;28;20032;-67
2021/12/03 06:50:35;;;;;;;16.92;8.52;;;;;;;0.88;100.00;100924.16;5055094;28;20025;-67
2021/12/03 06:53:12;;;;;;;22.08;7.60;;;;;;;0.88;100.00;100924.97;5055018;28;20465;-68
2021/12/03 06:55:46;;;;;;;19.95;7.15;;;;;;;0.88;100.00;100930.22;5054881;28;20480;-68
2021/12/03 06:58:12;;;;;;;17.15;7.47;;;;;;;0.91;100.00;100936.19;5054894;28;20021;-67
2021/12/03 07:00:38;;;;;;;20.45;7.72;;;;;;;0.89;99.71;100923.16;5054689;28;20033;-67
2021/12/03 07:03:04;;;;;;;17.20;6.95;;;;;;;0.88;99.13;100918.91;5054805;28;20081;-67
2021/12/03 07:05:29;;;;;;;14.05;6.80;;;;;;;0.85;98.97;100920.00;5054890;28;20131;-67
2021/12/03 07:07:55;;;;;;;14.90;6.40;;;;;;;0.86;98.70;100923.44;5053022;28;20032;-67
2021/12/03 07:10:20;;;;;;;19.05;7.53;;;;;;;0.86;98.59;100924.28;5054175;28;20537;-67
2021/12/03 07:12:46;;;;;;;16.35;8.35;;;;;;;0.87;98.23;100920.69;5053059;28;20064;-67
2021/12/03 07:15:12;;;;;;;22.00;8.15;;;;;;;0.86;97.99;100918.19;5054591;28;20118;-67
2021/12/03 07:17:37;;;;;;;16.80;5.75;;;;;;;0.82;97.93;100919.44;5054567;28;20029;-67
2021/12/03 07:20:03;;;;;;;20.27;7.25;;;;;;;0.82;97.86;100912.38;5054183;28;20048;-67
2021/12/03 07:22:30;;;;;;;16.90;5.70;;;;;;;0.81;97.58;100907.25;5054015;28;20033;-68
2021/12/03 07:24:56;;;;;;;17.63;6.57;;;;;;;0.79;97.32;100915.28;5054317;28;20031;-67
2021/12/03 07:27:21;;;;;;;17.40;7.82;;;;;;;0.78;97.44;100907.53;5054391;28;20033;-67
2021/12/03 07:29:48;;;;;;;22.25;8.25;;;;;;;0.81;97.56;100907.25;5048406;28;20043;-67
2021/12/03 07:32:24;;;;;;;18.33;6.88;;;;;;;0.79;97.15;100888.19;5031514;28;20037;-68
2021/12/03 07:34:50;;;;;;;20.48;7.45;;;;;;;0.82;97.31;100895.81;5031358;28;20022;-67
2021/12/03 07:37:16;;;;;;;15.80;6.30;;;;;;;0.79;97.05;100899.53;5031262;28;20033;-67
2021/12/03 07:39:44;;;;;;;14.20;7.85;;;;;;;0.83;96.96;100908.78;5031056;28;20041;-68
2021/12/03 07:42:09;;;;;;;22.55;7.13;;;;;;;0.82;96.59;100912.38;5029873;28;20392;-67
2021/12/03 07:44:35;;;;;;;14.57;6.65;;;;;;;0.84;96.41;100904.38;5031130;28;20029;-68
2021/12/03 07:47:00;;;;;;;18.20;5.03;;;;;;;0.82;96.33;100909.75;5030659;28;20049;-68
2021/12/03 07:49:26;;;;;;;14.18;5.13;;;;;;;0.84;96.00;100912.25;5031087;28;20029;-67
2021/12/03 07:51:53;;;;;;;17.98;6.28;;;;;;;0.88;96.18;100919.72;5031034;28;20028;-67
2021/12/03 07:54:18;;;;;;;18.50;7.30;;;;;;;0.92;96.47;100914.19;5046275;28;20021;-68
2021/12/03 07:56:45;;;;;;;18.50;5.88;;;;;;;0.96;96.20;100919.06;5030623;28;20033;-68
2021/12/03 07:59:10;;;;;;;15.10;7.13;;;;;;;0.99;95.55;100907.47;5030926;28;20926;-67
2021/12/03 08:01:36;;;;;;;14.88;4.55;;;;;;;1.02;95.93;100907.19;5030714;28;20124;-67
2021/12/03 08:04:01;;;;;;;12.70;4.85;;;;;;;1.04;95.85;100918.41;5030651;28;20033;-68
2021/12/03 08:06:27;;;;;;;15.75;4.93;;;;;;;1.06;95.99;100911.22;5030804;28;20449;-68
2021/12/03 08:08:52;;;;;;;22.63;6.35;;;;;;;1.10;95.60;100909.97;5030728;28;20053;-68
2021/12/03 08:11:17;;;;;;;12.18;4.07;;;;;;;1.13;95.77;100895.75;5030721;28;20032;-67
2021/12/03 08:13:43;;;;;;;13.68;6.28;;;;;;;1.09;95.86;100889.94;5030551;28;20136;-68
2021/12/03 08:16:09;;;;;;;16.27;5.45;;;;;;;1.15;95.22;100897.28;5030594;28;20045;-67
2021/12/03 08:18:34;;;;;;;15.57;5.15;;;;;;;1.18;95.64;100901.44;5030532;28;20065;-68
2021/12/03 08:21:00;;;;;;;15.65;5.03;;;;;;;1.19;95.79;100893.44;5030558;28;20449;-67
2021/12/03 08:23:26;;;;;;;14.82;5.25;;;;;;;1.23;95.38;100901.84;5030584;28;20024;-68
2021/12/03 08:25:52;;;;;;;10.52;4.00;;;;;;;1.26;95.61;100899.00;5032397;28;20056;-67
2021/12/03 08:28:17;;;;;;;19.92;7.35;;;;;;;1.29;95.71;100893.47;5033353;28;20057;-66
2021/12/03 08:30:43;;;;;;;18.20;4.78;;;;;;;1.35;95.31;100902.59;5033264;28;20480;-66
2021/12/03 08:33:08;;;;;;;11.00;4.47;;;;;;;1.38;95.40;100902.31;5032113;28;20083;-66
2021/12/03 08:35:34;;;;;;;14.75;6.40;;;;;;;1.40;95.12;100903.84;5033203;28;20384;-67
2021/12/03 08:38:00;;;;;;;17.98;5.32;;;;;;;1.43;94.81;100900.13;5033267;28;20041;-67
2021/12/03 08:40:25;;;;;;;11.32;3.90;;;;;;;1.45;94.67;100895.56;5033044;28;20470;-66
2021/12/03 08:42:51;;;;;;;13.48;5.25;;;;;;;1.52;94.91;100892.25;5033177;28;20030;-66
2021/12/03 08:45:18;;;;;;;13.63;4.63;;;;;;;1.55;94.27;100888.53;5033001;28;20452;-66
2021/12/03 08:47:49;;;;;;;13.65;4.55;;;;;;;1.58;94.54;100879.53;5032614;28;20492;-66
2021/12/03 08:50:17;;;;;;;18.00;5.03;;;;;;;1.60;94.16;100885.44;5032731;28;20040;-66
2021/12/03 08:55:27;;;;;;;19.05;4.63;;;;;;;1.63;93.93;100877.31;5032674;28;20056;-67
2021/12/03 08:57:52;;;;;;;13.77;3.95;;;;;;;1.72;92.94;100889.63;5047603;28;20029;-66
2021/12/03 09:00:21;;;;;;;11.43;3.60;;;;;;;1.76;92.73;100888.38;5032276;28;20029;-67
2021/12/03 09:02:48;;;;;;;13.52;3.83;;;;;;;1.80;92.89;100889.75;5032623;28;20075;-67
2021/12/03 09:05:13;;;;;;;13.73;4.30;;;;;;;1.86;93.00;100875.22;5032678;28;20029;-67
2021/12/03 09:07:39;;;;;;;14.05;4.68;;;;;;;1.86;93.19;100875.22;5032869;28;20044;-67
2021/12/03 09:10:10;;;;;;;26.48;7.07;;;;;;;1.87;92.42;100871.63;5032671;28;20025;-67
2021/12/03 09:12:35;;;;;;;12.63;3.97;;;;;;;1.90;92.35;100868.72;5032580;28;20029;-67
2021/12/03 09:15:05;;;;;;;16.88;5.55;;;;;;;1.91;92.88;100873.00;5032670;28;20036;-67
2021/12/03 09:22:45;;;;;;;13.05;4.03;;;;;;;2.11;92.36;100858.03;5032845;28;20037;-67
2021/12/03 09:25:16;;;;;;;13.68;5.75;;;;;;;2.17;91.30;100853.06;5032743;28;20026;-66
2021/12/03 09:27:42;;;;;;;13.10;3.90;;;;;;;2.19;91.74;100856.34;5032616;28;20036;-68
2021/12/03 09:30:10;;;;;;;14.45;3.50;;;;;;;2.23;91.48;100854.28;5032278;28;20022;-66
2021/12/03 09:32:36;;;;;;;14.82;4.90;;;;;;;2.24;92.00;100858.56;5034891;28;20090;-67
2021/12/03 09:35:03;;;;;;;20.75;6.30;;;;;;;2.24;91.51;100863.00;5035384;28;20029;-67
2021/12/03 09:37:29;;;;;;;17.60;5.50;;;;;;;2.20;91.76;100865.06;5036500;28;20247;-67
2021/12/03 09:39:55;;;;;;;11.77;4.35;;;;;;;2.19;91.71;100876.56;5036329;28;20108;-67
2021/12/03 09:42:21;;;;;;;13.10;4.03;;;;;;;2.18;92.28;100870.47;5036291;28;20481;-67
2021/12/03 09:44:52;;;;;;;12.07;4.75;;;;;;;2.20;92.16;100872.97;5036320;28;20029;-67
2021/12/03 09:47:19;;;;;;;10.90;4.63;;;;;;;2.25;91.48;100864.66;5035148;28;20062;-67
2021/12/03 09:49:45;;;;;;;19.20;4.32;;;;;;;2.29;91.96;100856.34;5036291;28;20029;-66
2021/12/03 09:55:12;;;;;;;12.20;4.10;;;;;;;2.34;91.86;100840.13;5035257;28;20465;-67
2021/12/03 09:57:46;;;;;;;15.00;4.03;;;;;;;2.34;92.03;100827.78;5036066;28;20034;-66
2021/12/03 10:06:07;;;;;;;12.48;3.90;;;;;;;2.41;91.84;100825.38;5036089;28;19920;-67
2021/12/03 10:13:24;;;;;;;15.23;5.60;;;;;;;2.46;91.83;100811.81;5035657;28;20041;-67
2021/12/03 10:16:20;;;;;;;11.07;4.13;;;;;;;2.47;91.89;100797.69;5035455;28;20044;-67
2021/12/03 10:27:35;;;;;;;9.77;3.67;;;;;;;2.58;91.77;100800.94;5035015;28;20036;-67
2021/12/03 10:29:44;;;;;;;13.27;3.88;;;;;;;2.63;92.18;100793.44;5034705;28;20029;-67
2021/12/03 10:35:17;;;;;;;14.65;4.50;;;;;;;2.66;92.24;100776.53;5035451;28;20082;-67
2021/12/03 10:46:12;;;;;;;23.00;5.03;;;;;;;2.69;92.01;100741.16;5035009;28;20385;-67
2021/12/03 10:48:59;;;;;;;11.68;3.92;;;;;;;2.74;92.03;100734.47;5035098;28;20021;-67
2021/12/03 10:54:01;;;;;;;18.25;5.72;;;;;;;2.80;92.08;100733.03;5047637;28;20108;-67
2021/12/03 12:04:08;;;;;;;9.70;3.53;;;;;;;3.82;88.01;100615.69;5048399;28;20377;-68
2021/12/03 14:38:14;;;;;;;10.90;3.10;;;;;;;3.37;90.63;100433.09;5055300;28;20032;-67
2021/12/03 14:43:23;;;;;;;10.48;3.03;;;;;;;3.51;89.78;100421.09;5055322;28;20041;-67
2021/12/03 14:46:04;;;;;;;10.75;3.38;;;;;;;3.46;89.69;100428.69;5054707;28;20509;-68
2021/12/03 14:56:37;;;;;;;17.23;5.05;;;;;;;3.45;90.46;100443.66;5054640;28;20732;-67
2021/12/03 14:59:16;;;;;;;10.05;4.70;;;;;;;3.46;90.32;100444.50;5054856;28;20112;-68
2021/12/03 15:01:49;;;;;;;10.43;4.28;;;;;;;3.45;90.74;100445.47;5054768;28;20043;-68
2021/12/03 15:07:05;;;;;;;7.20;4.00;;;;;;;3.45;91.18;100441.00;5054280;28;20025;-67
2021/12/03 15:09:34;;;;;;;12.07;4.47;;;;;;;3.44;91.40;100441.19;5054597;28;20017;-68
2021/12/03 15:32:58;;;;;;;7.30;4.07;;;;;;;3.32;93.98;100416.91;5050191;28;20039;-66
2021/12/03 15:54:50;;;;;;;8.55;4.10;;;;;;;3.13;96.56;100396.13;5050044;28;20071;-65
2021/12/03 16:08:21;;;;;;;6.97;3.67;;;;;;;3.10;97.43;100378.00;5039010;28;20491;-66
2021/12/03 16:13:44;;;;;;;6.38;3.80;;;;;;;3.08;97.62;100368.44;5049059;28;20073;-67
2021/12/03 16:53:49;;;;;;;6.28;3.70;;;;;;;3.03;99.91;100339.09;5053094;28;20114;-67
2021/12/03 16:56:22;;;;;;;10.23;5.93;;;;;;;3.04;100.00;100337.31;5052651;28;20037;-67
2021/12/03 16:58:48;;;;;;;8.25;4.15;;;;;;;3.00;100.00;100333.34;5052569;28;20115;-67
2021/12/03 17:04:26;;;;;;;9.80;4.53;;;;;;;3.03;100.00;100335.66;5052600;28;20377;-67
2021/12/03 17:57:32;;;;;;;6.53;4.20;;;;;;;3.03;100.00;100249.53;5056258;28;20071;-67
2021/12/03 18:00:00;;;;;;;7.00;4.03;;;;;;;2.92;100.00;100226.16;5055872;28;20457;-67
2021/12/03 18:02:43;;;;;;;7.90;4.00;;;;;;;3.01;100.00;100241.00;5055978;28;20033;-67
2021/12/03 18:07:57;;;;;;;8.73;4.90;;;;;;;3.02;100.00;100233.91;5055769;28;20128;-67
2021/12/03 18:13:18;;;;;;;6.50;4.03;;;;;;;3.06;100.00;100238.66;5054893;28;20061;-67
2021/12/03 18:55:54;;;;;;;16.30;5.53;;;;;;;3.22;100.00;100218.59;5051219;28;20029;-65
2021/12/03 18:58:23;;;;;;;8.55;4.95;;;;;;;3.21;100.00;100214.31;5050976;28;20549;-65
2021/12/03 19:00:51;;;;;;;7.95;4.25;;;;;;;3.23;100.00;100225.53;5050869;28;20517;-66